Αρχική σελίδα
METAR-TAF:

METAR-TAF

Αεροδρόμια :

Aurora Municipal Airport (Al Potter Field)

Aurora, Νεμπράσκα, Ηνωμένες Πολιτείες Αμερικής

γεωγραφικό πλάτος: 40-53-38N, γεωγραφικό μήκος: 097-59-40W, υψόμετρο: 550 μ

Παρών καιρός

Η αναφορά έγινε 25 λεπτά πριν, στις 08:15 UTC
Ήπιος άνεμος
Θερμοκρασία 19°C
Υγρασία 94%
Πίεση 1013 hPa
Ορατότητα: 16.1 χλμ
Καθαρός ουρανός

METAR: KAUH 200815Z AUTO 00000KT 10SM CLR 19/18 A2992 RMK AO2 T01850178

Χρόνος: 03:40 (08:40 UTC)


TAF: λείπει

Μετεωρολογικές αναφορές και προγνώσεις για περισσότερα από 4000 αεροδρόμια (δελτία METAR και TAF).

Οι διαθέσιμοι σταθμοί απεικονίζονται στο χάρτη με κίτρινες και κόκκινες κουκκίδες.

Μετακινήστε το ποντίκι πάνω από τις κουκκίδες για να δείτε το όνομα του σταθμού.

Στη συνέχεια, κάντε κλικ για να δείτε τις μετεωρολογικές αναφορές και τις προγνώσεις καιρού.

Για να αλλάξετε το χάρτη: κάντε κλικ στα πράσινα κουμπιά με τον μαύρο σταυρό για να ζουμάρετε, στο πράσινο κουμπί με την παύλα για να αφαιρέσετε το ζουμ ή στα πράσινα βέλη για να αντιπαραβάλλετε χάρτες.


METAR-TAF: